createdAt,value
2022-11-09T00:02:29.871Z,99679.78
2022-11-09T00:06:34.313Z,99679.72
2022-11-09T00:10:38.681Z,99666.72
2022-11-09T00:14:43.485Z,99677.69
2022-11-09T00:18:48.569Z,99655.88
2022-11-09T00:22:51.851Z,99651.03
2022-11-09T00:26:55.142Z,99660.78
2022-11-09T00:31:01.969Z,99666.38
2022-11-09T00:35:06.002Z,99653.09
2022-11-09T00:39:11.543Z,99645.38
2022-11-09T00:43:14.971Z,99646.19
2022-11-09T00:47:19.656Z,99659.13
2022-11-09T00:51:23.545Z,99659.69
2022-11-09T00:55:27.062Z,99648.47
2022-11-09T00:59:30.899Z,99649.25
2022-11-09T01:03:35.647Z,99654.22
2022-11-09T01:07:39.376Z,99654.66
2022-11-09T01:11:43.082Z,99655.06
2022-11-09T01:15:47.758Z,99669.81
2022-11-09T01:19:52.547Z,99673.59
2022-11-09T01:23:59.587Z,99674.56
2022-11-09T01:28:05.259Z,99685.63
2022-11-09T01:32:10.862Z,99678.81
2022-11-09T01:36:17.182Z,99686.78
2022-11-09T01:40:20.579Z,99682.28
2022-11-09T01:44:24.102Z,99673.59
2022-11-09T01:48:36.045Z,99685.34
2022-11-09T01:52:45.369Z,99684.88
2022-11-09T01:56:53.165Z,99675.88
2022-11-09T02:00:59.092Z,99671.81
2022-11-09T02:05:07.547Z,99667.91
2022-11-09T02:09:18.785Z,99667.16
2022-11-09T02:13:26.092Z,99667.03
2022-11-09T02:17:31.015Z,99676.00
2022-11-09T02:21:36.207Z,99678.19
2022-11-09T02:25:39.562Z,99667.16
2022-11-09T02:29:46.044Z,99673.91
2022-11-09T02:33:56.666Z,99685.22
2022-11-09T02:38:01.711Z,99687.19
2022-11-09T02:42:10.720Z,99677.22
2022-11-09T02:46:24.907Z,99682.41
2022-11-09T02:50:28.485Z,99680.72
2022-11-09T02:54:33.423Z,99693.75
2022-11-09T02:58:37.124Z,99690.59
2022-11-09T03:02:40.761Z,99694.56
2022-11-09T03:06:44.350Z,99689.75
2022-11-09T03:10:53.084Z,99706.88
2022-11-09T03:14:57.020Z,99692.03
2022-11-09T03:19:00.811Z,99710.22
2022-11-09T03:23:04.621Z,99700.00
2022-11-09T03:27:11.936Z,99714.34
2022-11-09T03:31:15.701Z,99693.69
2022-11-09T03:35:19.380Z,99692.59
2022-11-09T03:39:23.098Z,99700.28
2022-11-09T03:43:27.962Z,99707.53
2022-11-09T03:47:31.286Z,99718.19
2022-11-09T03:51:34.715Z,99725.69
2022-11-09T03:55:38.872Z,99734.03
2022-11-09T03:59:43.596Z,99731.19
2022-11-09T04:03:47.056Z,99733.38
2022-11-09T04:07:51.071Z,99728.44
2022-11-09T04:11:54.647Z,99727.88
2022-11-09T04:15:59.339Z,99745.22
2022-11-09T04:20:02.927Z,99734.09
2022-11-09T04:24:06.696Z,99746.88
2022-11-09T04:28:13.164Z,99752.72
2022-11-09T04:32:17.926Z,99768.72
2022-11-09T04:36:21.362Z,99763.50
2022-11-09T04:40:26.552Z,99759.31
2022-11-09T04:44:30.359Z,99754.31
2022-11-09T04:48:35.827Z,99761.72
2022-11-09T04:52:39.511Z,99775.25
2022-11-09T04:56:42.881Z,99780.41
2022-11-09T05:00:46.346Z,99791.81
2022-11-09T05:04:51.132Z,99783.44
2022-11-09T05:08:54.739Z,99798.50
2022-11-09T05:13:02.631Z,99789.91
2022-11-09T05:17:06.883Z,99779.66
2022-11-09T05:21:11.986Z,99776.59
2022-11-09T05:25:15.763Z,99765.59
2022-11-09T05:29:19.349Z,99773.13
2022-11-09T05:33:23.267Z,99771.63
2022-11-09T05:37:28.370Z,99777.97
2022-11-09T05:41:31.876Z,99777.28
2022-11-09T05:45:42.587Z,99788.28
2022-11-09T05:49:47.029Z,99785.03
2022-11-09T05:53:51.805Z,99777.28
2022-11-09T05:57:56.460Z,99771.47
2022-11-09T06:01:59.999Z,99765.22
2022-11-09T06:06:08.320Z,99771.63
2022-11-09T06:10:13.730Z,99780.47
2022-11-09T06:14:17.419Z,99775.97
2022-11-09T06:18:21.166Z,99770.97
2022-11-09T06:22:24.721Z,99786.16
2022-11-09T06:26:29.526Z,99786.84
2022-11-09T06:30:33.061Z,99793.34
2022-11-09T06:34:36.825Z,99806.66
2022-11-09T06:38:40.549Z,99796.47
2022-11-09T06:42:45.606Z,99810.28
2022-11-09T06:46:49.105Z,99807.31
2022-11-09T06:50:52.710Z,99817.53
2022-11-09T06:54:56.266Z,99819.78
2022-11-09T06:59:02.133Z,99827.06
2022-11-09T07:03:06.386Z,99828.50
2022-11-09T07:07:10.100Z,99837.22
2022-11-09T07:11:16.507Z,99843.03
2022-11-09T07:15:21.508Z,99855.69
2022-11-09T07:19:24.996Z,99857.25
2022-11-09T07:23:28.476Z,99860.44
2022-11-09T07:27:31.967Z,99865.56
2022-11-09T07:31:36.803Z,99869.75
2022-11-09T07:35:40.380Z,99872.72
2022-11-09T07:39:43.969Z,99880.59
2022-11-09T07:43:47.376Z,99886.31
2022-11-09T07:47:56.918Z,99889.31
2022-11-09T07:52:00.277Z,99888.34
2022-11-09T07:56:05.392Z,99891.53
2022-11-09T08:00:11.036Z,99890.34
2022-11-09T08:04:18.717Z,99894.88
2022-11-09T08:08:22.115Z,99884.56
2022-11-09T08:12:25.551Z,99884.25
2022-11-09T08:16:32.276Z,99879.47
2022-11-09T08:20:41.570Z,99871.41
2022-11-09T08:24:44.978Z,99885.47
2022-11-09T08:28:48.516Z,99882.50
2022-11-09T08:32:51.995Z,99883.91
2022-11-09T08:36:56.721Z,99869.16
2022-11-09T08:41:00.466Z,99871.53
2022-11-09T08:45:04.182Z,99858.84
2022-11-09T08:49:07.643Z,99863.63
2022-11-09T08:53:12.573Z,99866.63
2022-11-09T08:57:18.260Z,99878.97
2022-11-09T09:01:21.866Z,99886.75
2022-11-09T09:05:26.704Z,99873.78
2022-11-09T09:09:32.119Z,99863.16
2022-11-09T09:13:39.083Z,99858.69
2022-11-09T09:17:46.597Z,99862.22
2022-11-09T09:21:50.075Z,99852.78
2022-11-09T09:25:58.464Z,99862.66
2022-11-09T09:30:02.365Z,99870.63
2022-11-09T09:34:05.823Z,99871.78
2022-11-09T09:38:09.267Z,99875.28
2022-11-09T09:42:18.636Z,99880.84
2022-11-09T09:46:27.984Z,99890.56
2022-11-09T09:50:38.319Z,99886.53
2022-11-09T09:54:45.879Z,99900.59
2022-11-09T09:58:57.881Z,99899.97
2022-11-09T10:03:02.617Z,99898.50
2022-11-09T10:07:14.775Z,99909.06
2022-11-09T10:11:29.371Z,99903.31
2022-11-09T10:15:40.706Z,99912.16
2022-11-09T10:19:57.337Z,99921.28
2022-11-09T10:24:16.045Z,99930.19
2022-11-09T10:28:19.827Z,99923.53
2022-11-09T10:32:25.851Z,99913.94
2022-11-09T10:36:34.962Z,99925.06
2022-11-09T10:40:43.515Z,99937.63
2022-11-09T10:45:14.850Z,99920.31
2022-11-09T10:49:38.882Z,99913.13
2022-11-09T10:54:21.185Z,99921.88
2022-11-09T10:58:49.244Z,99934.78
2022-11-09T11:03:16.287Z,99929.50
2022-11-09T11:07:40.030Z,99916.25
2022-11-09T11:12:15.657Z,99926.81
2022-11-09T11:16:39.635Z,99933.47
2022-11-09T11:21:18.429Z,99936.47
2022-11-09T11:26:02.583Z,99939.75
2022-11-09T11:30:36.600Z,99921.97
2022-11-09T11:35:00.636Z,99936.94
2022-11-09T11:39:35.541Z,99930.72
2022-11-09T11:44:06.916Z,99938.22
2022-11-09T11:48:52.605Z,99941.75
2022-11-09T11:53:30.709Z,99942.09
2022-11-09T11:58:03.785Z,99942.47
2022-11-09T12:02:58.888Z,99941.44
2022-11-09T12:07:30.347Z,99948.72
2022-11-09T12:12:08.707Z,99956.69
2022-11-09T12:16:37.067Z,99964.97
2022-11-09T12:21:13.552Z,99960.91
2022-11-09T12:25:39.970Z,99958.97
2022-11-09T12:30:10.669Z,99946.56
2022-11-09T12:34:42.382Z,99968.41
2022-11-09T12:39:08.847Z,99952.38
2022-11-09T12:43:35.944Z,99946.94
2022-11-09T12:47:59.952Z,99941.50
2022-11-09T12:52:27.139Z,99957.59
2022-11-09T12:56:56.157Z,99970.94
2022-11-09T13:01:46.445Z,99963.16
2022-11-09T13:06:22.345Z,99967.03
2022-11-09T13:10:44.549Z,99957.28
2022-11-09T13:15:28.500Z,99956.25
2022-11-09T13:19:52.551Z,99960.47
2022-11-09T13:24:50.242Z,99958.47
2022-11-09T13:29:24.756Z,99953.06
2022-11-09T13:33:48.194Z,99969.84
2022-11-09T13:38:16.166Z,100005.44
2022-11-09T13:42:37.899Z,99987.97
2022-11-09T13:47:00.912Z,99982.31
2022-11-09T13:51:26.950Z,99999.25
2022-11-09T13:55:48.429Z,100005.09
2022-11-09T14:00:19.027Z,100005.75
2022-11-09T14:04:41.494Z,100024.97
2022-11-09T14:09:05.226Z,100027.56
2022-11-09T14:13:36.016Z,100061.50
2022-11-09T14:18:03.808Z,100074.25
2022-11-09T14:22:25.429Z,100097.84
2022-11-09T14:27:02.503Z,100114.50
2022-11-09T14:31:25.808Z,100126.56
2022-11-09T14:35:47.780Z,100126.13
2022-11-09T14:40:16.828Z,100124.81
2022-11-09T14:44:43.988Z,100126.59
2022-11-09T14:49:10.120Z,100114.88
2022-11-09T14:53:34.001Z,100119.41
2022-11-09T14:57:56.778Z,100120.72
2022-11-09T15:02:20.579Z,100124.44
2022-11-09T15:06:46.387Z,100126.59
2022-11-09T15:11:08.599Z,100139.13
2022-11-09T15:15:31.237Z,100141.88
2022-11-09T15:19:56.143Z,100148.47
2022-11-09T15:24:19.330Z,100179.66
2022-11-09T15:28:45.593Z,100181.50
2022-11-09T15:33:17.667Z,100186.75
2022-11-09T15:37:51.514Z,100189.03
2022-11-09T15:42:13.335Z,100194.94
2022-11-09T15:46:41.314Z,100192.44
2022-11-09T15:51:03.510Z,100202.69
2022-11-09T15:55:26.672Z,100196.25
2022-11-09T15:59:48.993Z,100203.88
2022-11-09T16:04:10.719Z,100209.53
2022-11-09T16:08:32.627Z,100198.06
2022-11-09T16:12:56.978Z,100195.47
2022-11-09T16:17:18.415Z,100204.66
2022-11-09T16:21:40.200Z,100200.09
2022-11-09T16:26:05.247Z,100210.88
2022-11-09T16:30:28.586Z,100224.03
2022-11-09T16:35:15.436Z,100220.84
2022-11-09T16:39:33.476Z,100224.03
2022-11-09T16:43:55.675Z,100232.91
2022-11-09T16:48:18.957Z,100238.66
2022-11-09T16:52:40.877Z,100258.88
2022-11-09T16:57:02.322Z,100262.03
2022-11-09T17:01:24.119Z,100263.97
2022-11-09T17:05:47.159Z,100265.97
2022-11-09T17:10:09.406Z,100289.31
2022-11-09T17:14:32.139Z,100297.41
2022-11-09T17:18:55.028Z,100305.94
2022-11-09T17:23:20.129Z,100317.03
2022-11-09T17:27:41.899Z,100327.91
2022-11-09T17:32:04.171Z,100342.22
2022-11-09T17:37:01.958Z,100340.09
2022-11-09T17:41:17.478Z,100359.41
2022-11-09T17:45:39.584Z,100362.88
2022-11-09T17:50:06.596Z,100368.34
2022-11-09T17:54:34.053Z,100371.34
2022-11-09T17:59:00.272Z,100370.16
2022-11-09T18:03:23.066Z,100379.09
2022-11-09T18:07:45.605Z,100381.44
2022-11-09T18:12:07.423Z,100396.81
2022-11-09T18:16:34.406Z,100401.47
2022-11-09T18:21:01.351Z,100404.38
2022-11-09T18:25:24.782Z,100417.03
2022-11-09T18:29:46.664Z,100422.00
2022-11-09T18:34:09.983Z,100428.72
2022-11-09T18:38:32.135Z,100431.63
2022-11-09T18:42:54.557Z,100426.97
2022-11-09T18:47:16.537Z,100441.75
2022-11-09T18:51:39.792Z,100443.66
2022-11-09T18:56:06.485Z,100447.53
2022-11-09T19:00:28.656Z,100452.41
2022-11-09T19:04:50.385Z,100468.84
2022-11-09T19:09:35.439Z,100476.06
2022-11-09T19:13:57.736Z,100473.31
2022-11-09T19:18:20.226Z,100480.31
2022-11-09T19:22:41.984Z,100480.97
2022-11-09T19:27:06.008Z,100482.84
2022-11-09T19:31:27.635Z,100488.44
2022-11-09T19:36:15.133Z,100501.53
2022-11-09T19:40:39.322Z,100509.75
2022-11-09T19:45:03.398Z,100505.91
2022-11-09T19:49:26.766Z,100510.97
2022-11-09T19:53:50.595Z,100511.63
2022-11-09T19:58:12.471Z,100522.59
2022-11-09T20:02:35.676Z,100524.25
2022-11-09T20:06:57.239Z,100530.16
2022-11-09T20:11:34.056Z,100542.72
2022-11-09T20:16:01.591Z,100546.91
2022-11-09T20:20:26.012Z,100563.72
2022-11-09T20:24:47.596Z,100561.63
2022-11-09T20:29:09.372Z,100566.19
2022-11-09T20:33:31.624Z,100578.69
2022-11-09T20:37:54.484Z,100578.94
2022-11-09T20:42:16.304Z,100589.94
2022-11-09T20:46:38.726Z,100604.69
2022-11-09T20:51:03.884Z,100601.75
2022-11-09T20:55:27.050Z,100610.78
2022-11-09T20:59:48.467Z,100624.91
2022-11-09T21:04:10.213Z,100629.78
2022-11-09T21:08:31.984Z,100631.22
2022-11-09T21:12:55.751Z,100628.28
2022-11-09T21:17:17.651Z,100639.69
2022-11-09T21:21:39.250Z,100647.28
2022-11-09T21:26:18.544Z,100648.97
2022-11-09T21:30:41.787Z,100656.97
2022-11-09T21:35:03.334Z,100662.88
2022-11-09T21:39:25.006Z,100659.91
2022-11-09T21:43:46.948Z,100668.72
2022-11-09T21:48:10.043Z,100658.16
2022-11-09T21:52:31.938Z,100661.94
2022-11-09T21:56:53.842Z,100665.94
2022-11-09T22:01:16.396Z,100665.31
2022-11-09T22:05:41.433Z,100672.06
2022-11-09T22:10:13.744Z,100688.13
2022-11-09T22:14:52.812Z,100688.94
2022-11-09T22:19:32.012Z,100693.59
2022-11-09T22:23:55.015Z,100686.84
2022-11-09T22:28:17.234Z,100684.72
2022-11-09T22:32:38.696Z,100685.38
2022-11-09T22:37:00.778Z,100685.16
2022-11-09T22:41:24.696Z,100680.94
2022-11-09T22:45:46.601Z,100685.34
2022-11-09T22:50:08.506Z,100700.50
2022-11-09T22:54:30.541Z,100697.75
2022-11-09T22:58:54.360Z,100720.09
2022-11-09T23:03:15.970Z,100717.38
2022-11-09T23:07:37.703Z,100720.13
2022-11-09T23:11:59.383Z,100744.78
2022-11-09T23:16:23.405Z,100734.88
2022-11-09T23:20:45.213Z,100756.78
2022-11-09T23:25:24.786Z,100762.31
2022-11-09T23:29:46.549Z,100763.53
2022-11-09T23:34:10.568Z,100770.31
2022-11-09T23:38:33.395Z,100787.34
2022-11-09T23:43:00.186Z,100797.69
2022-11-09T23:47:21.629Z,100804.63
2022-11-09T23:51:44.775Z,100826.97
2022-11-09T23:56:07.999Z,100820.03
